createdAt,value
2023-02-19T00:01:55.094Z,9.66
2023-02-19T00:04:23.795Z,9.62
2023-02-19T00:06:52.075Z,9.67
2023-02-19T00:09:20.757Z,9.75
2023-02-19T00:11:48.995Z,9.69
2023-02-19T00:14:20.598Z,9.82
2023-02-19T00:16:49.000Z,9.74
2023-02-19T00:19:18.286Z,9.62
2023-02-19T00:21:46.240Z,9.57
2023-02-19T00:24:15.454Z,9.62
2023-02-19T00:26:43.895Z,9.62
2023-02-19T00:29:14.687Z,9.67
2023-02-19T00:31:44.974Z,9.61
2023-02-19T00:34:14.053Z,9.63
2023-02-19T00:36:43.059Z,9.62
2023-02-19T00:39:14.134Z,9.58
2023-02-19T00:41:42.083Z,9.55
2023-02-19T00:44:11.611Z,9.50
2023-02-19T00:46:41.473Z,9.47
2023-02-19T00:49:15.766Z,9.49
2023-02-19T00:51:43.663Z,9.53
2023-02-19T00:54:12.537Z,9.57
2023-02-19T00:56:40.571Z,9.50
2023-02-19T00:59:08.484Z,9.49
2023-02-19T01:01:36.462Z,9.42
2023-02-19T01:04:06.555Z,9.51
2023-02-19T01:06:36.281Z,9.51
2023-02-19T01:09:04.966Z,9.52
2023-02-19T01:11:33.197Z,9.34
2023-02-19T01:14:02.529Z,9.37
2023-02-19T01:16:31.057Z,9.39
2023-02-19T01:18:59.576Z,9.47
2023-02-19T01:21:29.501Z,9.52
2023-02-19T01:23:59.455Z,9.54
2023-02-19T01:26:29.661Z,9.54
2023-02-19T01:28:57.925Z,9.52
2023-02-19T01:31:26.224Z,9.54
2023-02-19T01:33:55.543Z,9.49
2023-02-19T01:36:23.611Z,9.48
2023-02-19T01:38:51.587Z,9.51
2023-02-19T01:41:22.288Z,9.52
2023-02-19T01:43:58.667Z,9.44
2023-02-19T01:46:28.022Z,9.38
2023-02-19T01:48:58.118Z,9.35
2023-02-19T01:51:26.048Z,9.35
2023-02-19T01:53:57.136Z,9.37
2023-02-19T01:56:27.464Z,9.25
2023-02-19T01:58:55.418Z,9.32
2023-02-19T02:01:23.378Z,9.20
2023-02-19T02:03:52.107Z,9.21
2023-02-19T02:06:23.281Z,9.19
2023-02-19T02:09:10.700Z,9.20
2023-02-19T02:11:42.224Z,9.14
2023-02-19T02:14:10.133Z,9.19
2023-02-19T02:16:48.137Z,9.10
2023-02-19T02:19:40.878Z,9.13
2023-02-19T02:22:12.710Z,9.18
2023-02-19T02:25:34.556Z,9.10
2023-02-19T02:28:14.779Z,9.18
2023-02-19T02:30:45.292Z,9.19
2023-02-19T02:33:22.631Z,9.13
2023-02-19T02:35:53.089Z,9.10
2023-02-19T02:38:25.192Z,9.17
2023-02-19T02:40:53.664Z,9.16
2023-02-19T02:43:21.648Z,9.21
2023-02-19T02:45:51.006Z,9.20
2023-02-19T02:48:24.936Z,9.23
2023-02-19T02:50:56.272Z,9.23
2023-02-19T02:53:45.910Z,9.16
2023-02-19T02:56:15.414Z,9.16
2023-02-19T02:58:44.137Z,9.09
2023-02-19T03:01:36.010Z,9.24
2023-02-19T03:04:07.137Z,9.18
2023-02-19T03:06:36.744Z,9.09
2023-02-19T03:09:11.286Z,9.08
2023-02-19T03:11:59.422Z,9.10
2023-02-19T03:14:50.239Z,9.12
2023-02-19T03:17:41.806Z,9.16
2023-02-19T03:20:12.727Z,9.20
2023-02-19T03:22:41.938Z,9.19
2023-02-19T03:25:30.739Z,9.15
2023-02-19T03:28:00.497Z,9.10
2023-02-19T03:30:31.423Z,8.94
2023-02-19T03:33:02.571Z,8.97
2023-02-19T03:35:33.015Z,8.87
2023-02-19T03:38:05.979Z,8.89
2023-02-19T03:40:39.599Z,8.95
2023-02-19T03:43:15.894Z,8.86
2023-02-19T03:45:49.158Z,8.76
2023-02-19T03:48:26.116Z,8.72
2023-02-19T03:51:02.306Z,8.73
2023-02-19T03:53:33.836Z,8.76
2023-02-19T03:56:07.863Z,8.58
2023-02-19T03:58:40.693Z,8.62
2023-02-19T04:01:12.064Z,8.59
2023-02-19T04:03:45.176Z,8.65
2023-02-19T04:06:15.834Z,8.56
2023-02-19T04:08:46.461Z,8.49
2023-02-19T04:11:16.083Z,8.47
2023-02-19T04:13:47.225Z,8.45
2023-02-19T04:16:20.077Z,8.39
2023-02-19T04:18:52.682Z,8.32
2023-02-19T04:21:21.742Z,8.37
2023-02-19T04:23:49.710Z,8.39
2023-02-19T04:26:18.365Z,8.45
2023-02-19T04:28:46.274Z,8.46
2023-02-19T04:31:14.788Z,8.43
2023-02-19T04:33:42.928Z,8.38
2023-02-19T04:36:12.678Z,8.46
2023-02-19T04:38:40.650Z,8.46
2023-02-19T04:41:09.787Z,8.40
2023-02-19T04:43:37.950Z,8.37
2023-02-19T04:46:06.221Z,8.42
2023-02-19T04:48:34.193Z,8.38
2023-02-19T04:51:06.519Z,8.40
2023-02-19T04:53:36.360Z,8.28
2023-02-19T04:56:08.872Z,8.29
2023-02-19T04:58:37.201Z,8.33
2023-02-19T05:01:05.688Z,8.30
2023-02-19T05:03:35.140Z,8.39
2023-02-19T05:06:04.798Z,8.48
2023-02-19T05:08:32.771Z,8.46
2023-02-19T05:11:02.739Z,8.42
2023-02-19T05:13:31.071Z,8.34
2023-02-19T05:16:00.632Z,8.41
2023-02-19T05:18:28.897Z,8.47
2023-02-19T05:20:58.613Z,8.44
2023-02-19T05:23:27.091Z,8.46
2023-02-19T05:25:55.206Z,8.43
2023-02-19T05:28:28.774Z,8.41
2023-02-19T05:30:57.792Z,8.52
2023-02-19T05:33:27.058Z,8.57
2023-02-19T05:35:56.504Z,8.57
2023-02-19T05:38:24.845Z,8.56
2023-02-19T05:40:52.842Z,8.63
2023-02-19T05:43:20.745Z,8.60
2023-02-19T05:45:50.060Z,8.57
2023-02-19T05:48:17.979Z,8.55
2023-02-19T05:50:45.888Z,8.54
2023-02-19T05:53:13.809Z,8.43
2023-02-19T05:55:41.779Z,8.66
2023-02-19T05:58:09.768Z,8.65
2023-02-19T06:00:37.739Z,8.65
2023-02-19T06:03:07.135Z,8.56
2023-02-19T06:05:35.360Z,8.58
2023-02-19T06:08:03.385Z,8.55
2023-02-19T06:10:31.341Z,8.52
2023-02-19T06:12:59.281Z,8.47
2023-02-19T06:15:27.256Z,8.37
2023-02-19T06:17:55.177Z,8.27
2023-02-19T06:20:26.043Z,8.34
2023-02-19T06:22:54.268Z,8.33
2023-02-19T06:25:22.227Z,8.40
2023-02-19T06:27:50.167Z,8.43
2023-02-19T06:30:18.210Z,8.44
2023-02-19T06:32:46.213Z,8.46
2023-02-19T06:35:14.164Z,8.52
2023-02-19T06:37:43.448Z,8.45
2023-02-19T06:40:11.852Z,8.42
2023-02-19T06:42:39.750Z,8.45
2023-02-19T06:45:08.397Z,8.45
2023-02-19T06:47:36.329Z,8.45
2023-02-19T06:50:04.327Z,8.34
2023-02-19T06:52:32.211Z,8.33
2023-02-19T06:55:01.518Z,8.33
2023-02-19T06:57:29.744Z,8.39
2023-02-19T06:59:57.846Z,8.36
2023-02-19T07:02:26.320Z,8.38
2023-02-19T07:04:54.252Z,8.45
2023-02-19T07:07:22.354Z,8.50
2023-02-19T07:09:50.275Z,8.46
2023-02-19T07:12:19.539Z,8.53
2023-02-19T07:14:48.109Z,8.56
2023-02-19T07:17:16.035Z,8.55
2023-02-19T07:19:43.963Z,8.60
2023-02-19T07:22:11.982Z,8.66
2023-02-19T07:24:39.909Z,8.68
2023-02-19T07:27:07.886Z,8.65
2023-02-19T07:29:37.203Z,8.62
2023-02-19T07:32:05.685Z,8.69
2023-02-19T07:34:33.621Z,8.76
2023-02-19T07:37:01.546Z,8.78
2023-02-19T07:39:29.567Z,8.85
2023-02-19T07:41:57.466Z,8.80
2023-02-19T07:44:25.359Z,8.77
2023-02-19T07:46:54.773Z,8.84
2023-02-19T07:49:22.734Z,8.86
2023-02-19T07:51:50.639Z,8.84
2023-02-19T07:54:18.569Z,8.80
2023-02-19T07:56:46.515Z,8.77
2023-02-19T07:59:15.877Z,8.83
2023-02-19T08:02:01.525Z,8.86
2023-02-19T08:04:30.935Z,8.87
2023-02-19T08:06:58.890Z,8.91
2023-02-19T08:09:27.001Z,8.93
2023-02-19T08:12:12.123Z,8.95
2023-02-19T08:14:40.060Z,8.87
2023-02-19T08:17:08.014Z,8.77
2023-02-19T08:19:37.351Z,8.75
2023-02-19T08:22:05.772Z,8.76
2023-02-19T08:24:33.990Z,8.80
2023-02-19T08:27:01.962Z,8.67
2023-02-19T08:29:29.925Z,8.74
2023-02-19T08:31:57.895Z,8.69
2023-02-19T08:34:25.831Z,8.61
2023-02-19T08:36:55.176Z,8.59
2023-02-19T08:39:23.189Z,8.63
2023-02-19T08:41:51.227Z,8.77
2023-02-19T08:44:19.336Z,8.74
2023-02-19T08:46:47.237Z,8.81
2023-02-19T08:49:16.546Z,8.79
2023-02-19T08:51:44.484Z,8.71
2023-02-19T08:54:13.788Z,8.78
2023-02-19T08:56:41.923Z,8.79
2023-02-19T08:59:10.018Z,8.69
2023-02-19T09:01:37.998Z,8.43
2023-02-19T09:04:06.244Z,8.20
2023-02-19T09:06:34.185Z,8.20
2023-02-19T09:09:02.114Z,8.22
2023-02-19T09:11:31.467Z,8.22
2023-02-19T09:13:59.374Z,8.23
2023-02-19T09:16:27.398Z,8.30
2023-02-19T09:18:58.115Z,8.48
2023-02-19T09:21:26.116Z,8.55
2023-02-19T09:23:54.060Z,8.57
2023-02-19T09:26:22.041Z,8.54
2023-02-19T09:28:51.354Z,8.61
2023-02-19T09:31:19.341Z,8.68
2023-02-19T09:33:48.735Z,8.90
2023-02-19T09:36:18.672Z,9.24
2023-02-19T09:38:46.914Z,9.48
2023-02-19T09:41:19.411Z,9.70
2023-02-19T09:43:47.586Z,9.70
2023-02-19T09:46:25.170Z,9.92
2023-02-19T09:48:54.801Z,9.99
2023-02-19T09:51:23.322Z,9.92
2023-02-19T09:53:53.327Z,10.05
2023-02-19T09:56:21.318Z,9.89
2023-02-19T09:58:50.359Z,10.00
2023-02-19T10:01:20.404Z,10.03
2023-02-19T10:03:49.563Z,10.12
2023-02-19T10:06:20.598Z,10.16
2023-02-19T10:08:50.748Z,10.07
2023-02-19T10:11:19.678Z,9.94
2023-02-19T10:13:49.891Z,9.89
2023-02-19T10:16:22.819Z,10.16
2023-02-19T10:18:50.773Z,10.08
2023-02-19T10:21:20.973Z,9.75
2023-02-19T10:23:52.380Z,9.70
2023-02-19T10:26:20.510Z,9.65
2023-02-19T10:28:48.459Z,9.64
2023-02-19T10:31:20.783Z,9.61
2023-02-19T10:33:52.385Z,9.55
2023-02-19T10:36:29.766Z,9.91
2023-02-19T10:38:59.594Z,10.39
2023-02-19T10:41:28.572Z,10.45
2023-02-19T10:43:58.375Z,10.80
2023-02-19T10:46:28.762Z,10.91
2023-02-19T10:48:59.928Z,11.14
2023-02-19T10:51:33.451Z,10.84
2023-02-19T10:54:07.095Z,10.81
2023-02-19T10:56:35.188Z,10.79
2023-02-19T10:59:21.678Z,10.87
2023-02-19T11:01:57.534Z,10.93
2023-02-19T11:04:27.933Z,10.99
2023-02-19T11:06:57.451Z,11.07
2023-02-19T11:09:28.528Z,11.46
2023-02-19T11:11:57.805Z,11.78
2023-02-19T11:14:27.078Z,11.63
2023-02-19T11:16:57.212Z,11.50
2023-02-19T11:19:37.614Z,11.33
2023-02-19T11:22:21.465Z,11.11
2023-02-19T11:24:50.010Z,10.89
2023-02-19T11:27:20.618Z,10.87
2023-02-19T11:29:48.656Z,10.56
2023-02-19T11:32:26.357Z,10.22
2023-02-19T11:35:15.487Z,10.09
2023-02-19T11:37:55.088Z,10.01
2023-02-19T11:40:26.163Z,9.90
2023-02-19T11:42:57.916Z,9.81
2023-02-19T11:45:33.936Z,9.93
2023-02-19T11:48:25.869Z,9.95
2023-02-19T11:51:02.148Z,9.93
2023-02-19T11:53:32.107Z,10.01
2023-02-19T11:56:12.326Z,9.97
2023-02-19T11:58:53.181Z,9.95
2023-02-19T12:01:25.366Z,9.86
2023-02-19T12:04:08.689Z,10.01
2023-02-19T12:06:45.235Z,10.04
2023-02-19T12:09:23.656Z,10.30
2023-02-19T12:12:12.183Z,10.29
2023-02-19T12:15:00.668Z,10.39
2023-02-19T12:17:44.576Z,10.50
2023-02-19T12:20:20.254Z,10.54
2023-02-19T12:22:54.924Z,10.51
2023-02-19T12:25:36.078Z,10.55
2023-02-19T12:28:26.439Z,10.63
2023-02-19T12:31:08.285Z,10.40
2023-02-19T12:34:00.787Z,10.29
2023-02-19T12:36:34.537Z,10.20
2023-02-19T12:39:08.693Z,10.29
2023-02-19T12:41:42.375Z,10.55
2023-02-19T12:44:13.714Z,10.51
2023-02-19T12:46:44.339Z,10.56
2023-02-19T12:49:14.800Z,11.00
2023-02-19T12:51:45.870Z,11.02
2023-02-19T12:54:19.149Z,10.87
2023-02-19T12:56:51.543Z,10.99
2023-02-19T12:59:24.829Z,11.11
2023-02-19T13:01:58.178Z,10.95
2023-02-19T13:04:31.946Z,10.95
2023-02-19T13:07:03.777Z,10.93
2023-02-19T13:09:35.829Z,10.74
2023-02-19T13:12:07.428Z,10.51
2023-02-19T13:14:37.952Z,10.67
2023-02-19T13:17:14.170Z,10.77
2023-02-19T13:19:42.170Z,10.75
2023-02-19T13:22:35.138Z,10.75
2023-02-19T13:25:05.223Z,10.76
2023-02-19T13:27:56.636Z,10.73
2023-02-19T13:30:44.722Z,10.18
2023-02-19T13:33:23.732Z,10.35
2023-02-19T13:36:06.085Z,10.41
2023-02-19T13:38:37.902Z,10.62
2023-02-19T13:41:07.693Z,10.61
2023-02-19T13:43:38.876Z,10.54
2023-02-19T13:46:09.142Z,10.44
2023-02-19T13:48:38.264Z,10.32
2023-02-19T13:51:40.215Z,10.28
2023-02-19T13:54:27.493Z,10.23
2023-02-19T13:57:30.249Z,10.01
2023-02-19T13:59:58.819Z,10.09
2023-02-19T14:02:31.075Z,10.07
2023-02-19T14:05:01.226Z,9.86
2023-02-19T14:07:51.342Z,9.77
2023-02-19T14:11:02.311Z,9.81
2023-02-19T14:13:58.098Z,9.73
2023-02-19T14:16:35.062Z,9.58
2023-02-19T14:19:03.127Z,9.48
2023-02-19T14:21:36.951Z,9.18
2023-02-19T14:24:05.476Z,8.83
2023-02-19T14:26:35.861Z,8.61
2023-02-19T14:29:08.138Z,8.53
2023-02-19T14:31:38.140Z,8.46
2023-02-19T14:34:07.756Z,8.45
2023-02-19T14:36:44.070Z,8.34
2023-02-19T14:39:15.197Z,8.25
2023-02-19T14:41:45.496Z,8.25
2023-02-19T14:44:19.612Z,8.32
2023-02-19T14:46:52.948Z,8.20
2023-02-19T14:49:24.608Z,8.17
2023-02-19T14:51:54.587Z,8.13
2023-02-19T14:54:33.560Z,8.10
2023-02-19T14:57:02.749Z,8.05
2023-02-19T14:59:32.059Z,8.00
2023-02-19T15:02:02.369Z,7.92
2023-02-19T15:04:32.474Z,7.97
2023-02-19T15:07:03.610Z,7.90
2023-02-19T15:09:34.623Z,8.04
2023-02-19T15:12:04.069Z,8.16
2023-02-19T15:14:34.235Z,8.23
2023-02-19T15:17:05.435Z,8.24
2023-02-19T15:19:36.137Z,8.19
2023-02-19T15:22:04.633Z,8.17
2023-02-19T15:24:32.676Z,8.23
2023-02-19T15:27:00.876Z,8.18
2023-02-19T15:29:30.153Z,8.14
2023-02-19T15:32:02.250Z,8.20
2023-02-19T15:34:31.950Z,8.21
2023-02-19T15:37:01.852Z,8.11
2023-02-19T15:39:37.001Z,8.11
2023-02-19T15:42:06.265Z,8.14
2023-02-19T15:44:44.385Z,8.08
2023-02-19T15:47:19.592Z,8.13
2023-02-19T15:49:52.748Z,8.04
2023-02-19T15:52:31.443Z,8.07
2023-02-19T15:55:03.274Z,8.02
2023-02-19T15:57:33.683Z,7.99
2023-02-19T16:00:05.473Z,7.84
2023-02-19T16:02:35.375Z,7.79
2023-02-19T16:05:03.343Z,7.92
2023-02-19T16:07:32.969Z,7.90
2023-02-19T16:10:18.990Z,7.95
2023-02-19T16:12:56.253Z,7.91
2023-02-19T16:15:24.167Z,7.81
2023-02-19T16:17:53.678Z,7.87
2023-02-19T16:20:24.165Z,7.88
2023-02-19T16:22:53.188Z,7.82
2023-02-19T16:25:30.385Z,7.85
2023-02-19T16:27:58.886Z,7.81
2023-02-19T16:30:30.544Z,7.86
2023-02-19T16:33:21.983Z,7.80
2023-02-19T16:35:52.340Z,7.82
2023-02-19T16:38:22.234Z,7.80
2023-02-19T16:41:13.251Z,7.82
2023-02-19T16:43:43.387Z,7.74
2023-02-19T16:46:13.130Z,7.78
2023-02-19T16:48:42.500Z,7.78
2023-02-19T16:51:10.663Z,7.79
2023-02-19T16:53:38.766Z,7.93
2023-02-19T16:56:09.287Z,7.79
2023-02-19T16:58:39.877Z,7.81
2023-02-19T17:01:08.231Z,7.81
2023-02-19T17:03:36.269Z,7.74
2023-02-19T17:06:06.183Z,7.70
2023-02-19T17:08:36.992Z,7.30
2023-02-19T17:11:07.092Z,6.14
2023-02-19T17:13:35.076Z,5.62
2023-02-19T17:16:03.099Z,5.19
2023-02-19T17:18:31.047Z,5.07
2023-02-19T17:21:02.720Z,5.02
2023-02-19T17:23:32.152Z,5.05
2023-02-19T17:26:00.110Z,5.03
2023-02-19T17:28:28.020Z,5.11
2023-02-19T17:30:56.181Z,5.10
2023-02-19T17:33:24.107Z,5.11
2023-02-19T17:35:52.031Z,5.06
2023-02-19T17:38:19.921Z,5.17
2023-02-19T17:40:49.192Z,5.22
2023-02-19T17:43:17.149Z,5.22
2023-02-19T17:45:45.108Z,5.18
2023-02-19T17:48:13.930Z,5.31
2023-02-19T17:50:42.415Z,5.28
2023-02-19T17:53:10.386Z,5.35
2023-02-19T17:55:38.372Z,5.41
2023-02-19T17:58:07.687Z,5.47
2023-02-19T18:00:36.619Z,5.46
2023-02-19T18:03:04.780Z,5.43
2023-02-19T18:05:32.696Z,5.47
2023-02-19T18:08:00.791Z,5.52
2023-02-19T18:10:30.459Z,5.54
2023-02-19T18:12:58.454Z,5.62
2023-02-19T18:15:27.933Z,5.56
2023-02-19T18:17:56.025Z,5.58
2023-02-19T18:20:26.253Z,5.67
2023-02-19T18:22:54.514Z,5.67
2023-02-19T18:25:23.259Z,5.55
2023-02-19T18:27:51.545Z,5.54
2023-02-19T18:30:20.809Z,5.63
2023-02-19T18:32:50.513Z,5.61
2023-02-19T18:35:19.337Z,5.53
2023-02-19T18:37:51.050Z,5.47
2023-02-19T18:40:19.457Z,5.50
2023-02-19T18:42:47.433Z,5.45
2023-02-19T18:45:15.627Z,5.44
2023-02-19T18:47:43.562Z,5.46
2023-02-19T18:50:13.933Z,5.46
2023-02-19T18:52:41.846Z,5.53
2023-02-19T18:55:11.687Z,5.49
2023-02-19T18:57:39.603Z,5.48
2023-02-19T19:00:08.888Z,5.56
2023-02-19T19:02:48.644Z,5.55
2023-02-19T19:05:22.588Z,5.24
2023-02-19T19:07:51.058Z,5.18
2023-02-19T19:10:19.647Z,5.09
2023-02-19T19:12:47.923Z,5.31
2023-02-19T19:15:18.170Z,5.31
2023-02-19T19:17:46.588Z,5.24
2023-02-19T19:20:15.105Z,5.30
2023-02-19T19:22:44.516Z,5.30
2023-02-19T19:25:12.494Z,5.41
2023-02-19T19:27:40.417Z,5.45
2023-02-19T19:30:09.425Z,5.46
2023-02-19T19:32:38.667Z,5.40
2023-02-19T19:35:06.854Z,5.32
2023-02-19T19:37:34.840Z,5.24
2023-02-19T19:40:05.050Z,5.17
2023-02-19T19:42:33.033Z,5.20
2023-02-19T19:45:01.026Z,5.32
2023-02-19T19:47:29.069Z,5.27
2023-02-19T19:49:57.016Z,5.36
2023-02-19T19:52:24.939Z,5.41
2023-02-19T19:54:54.097Z,5.48
2023-02-19T19:57:23.479Z,5.40
2023-02-19T19:59:52.116Z,5.29
2023-02-19T20:02:20.181Z,5.29
2023-02-19T20:04:48.114Z,5.35
2023-02-19T20:07:16.554Z,5.22
2023-02-19T20:09:48.396Z,5.19
2023-02-19T20:12:16.731Z,5.24
2023-02-19T20:14:46.903Z,5.29
2023-02-19T20:17:14.895Z,5.23
2023-02-19T20:19:43.054Z,5.22
2023-02-19T20:22:12.256Z,5.27
2023-02-19T20:24:40.245Z,5.10
2023-02-19T20:27:08.305Z,5.16
2023-02-19T20:29:36.374Z,5.18
2023-02-19T20:32:06.099Z,5.18
2023-02-19T20:34:34.061Z,5.26
2023-02-19T20:37:02.003Z,5.23
2023-02-19T20:39:29.988Z,5.24
2023-02-19T20:41:58.867Z,5.30
2023-02-19T20:44:27.773Z,5.23
2023-02-19T20:46:56.618Z,5.24
2023-02-19T20:49:27.558Z,5.30
2023-02-19T20:51:58.107Z,5.30
2023-02-19T20:54:27.558Z,5.32
2023-02-19T20:56:56.944Z,5.36
2023-02-19T20:59:27.226Z,5.54
2023-02-19T21:01:55.305Z,5.48
2023-02-19T21:04:23.303Z,5.41
2023-02-19T21:06:52.663Z,5.39
2023-02-19T21:09:20.759Z,5.37
2023-02-19T21:11:49.088Z,5.49
2023-02-19T21:14:17.650Z,5.27
2023-02-19T21:16:45.819Z,5.21
2023-02-19T21:19:13.845Z,5.19
2023-02-19T21:21:41.746Z,5.30
2023-02-19T21:24:14.158Z,5.34
2023-02-19T21:26:42.976Z,5.46
2023-02-19T21:29:11.960Z,5.24
2023-02-19T21:31:41.802Z,5.02
2023-02-19T21:34:11.130Z,5.04
2023-02-19T21:36:39.399Z,5.07
2023-02-19T21:39:08.861Z,5.12
2023-02-19T21:41:38.387Z,5.12
2023-02-19T21:44:06.591Z,4.93
2023-02-19T21:46:34.581Z,4.92
2023-02-19T21:49:03.729Z,4.82
2023-02-19T21:51:33.211Z,4.86
2023-02-19T21:54:01.342Z,4.92
2023-02-19T21:56:31.246Z,5.21
2023-02-19T21:59:00.661Z,5.10
2023-02-19T22:01:29.823Z,4.91
2023-02-19T22:03:57.865Z,5.05
2023-02-19T22:06:29.117Z,5.18
2023-02-19T22:08:57.258Z,4.92
2023-02-19T22:11:25.269Z,4.90
2023-02-19T22:13:53.263Z,4.84
2023-02-19T22:16:22.816Z,4.76
2023-02-19T22:18:51.861Z,4.71
2023-02-19T22:21:20.527Z,4.76
2023-02-19T22:23:49.662Z,4.77
2023-02-19T22:26:21.352Z,4.82
2023-02-19T22:28:49.395Z,4.72
2023-02-19T22:31:17.769Z,4.84
2023-02-19T22:33:47.159Z,4.78
2023-02-19T22:36:16.752Z,4.84
2023-02-19T22:38:44.659Z,4.74
2023-02-19T22:41:13.220Z,5.02
2023-02-19T22:43:41.145Z,4.84
2023-02-19T22:46:11.919Z,5.09
2023-02-19T22:48:40.023Z,4.96
2023-02-19T22:51:13.522Z,5.12
2023-02-19T22:53:45.172Z,5.17
2023-02-19T22:56:14.211Z,5.14
2023-02-19T22:58:42.597Z,5.22
2023-02-19T23:01:10.982Z,5.40
2023-02-19T23:03:46.366Z,5.58
2023-02-19T23:06:16.222Z,5.84
2023-02-19T23:08:44.660Z,5.94
2023-02-19T23:11:13.334Z,6.06
2023-02-19T23:13:42.490Z,6.15
2023-02-19T23:16:10.895Z,6.14
2023-02-19T23:18:39.083Z,6.15
2023-02-19T23:21:07.152Z,6.36
2023-02-19T23:23:36.476Z,6.33
2023-02-19T23:26:05.326Z,6.38
2023-02-19T23:28:33.227Z,6.40
2023-02-19T23:31:01.263Z,6.40
2023-02-19T23:33:29.231Z,6.41
2023-02-19T23:35:57.152Z,6.44
2023-02-19T23:38:25.042Z,6.43
2023-02-19T23:40:54.321Z,6.43
2023-02-19T23:43:22.617Z,6.39
2023-02-19T23:45:50.612Z,6.40
2023-02-19T23:48:18.615Z,6.42
2023-02-19T23:50:46.739Z,6.47
2023-02-19T23:53:14.694Z,6.45
2023-02-19T23:55:42.576Z,6.43
2023-02-19T23:58:12.025Z,6.46
